createdAt,value
2023-10-01T00:01:04.856Z,16.70
2023-10-01T00:03:33.203Z,15.90
2023-10-01T00:08:18.085Z,16.30
2023-10-01T00:10:45.682Z,16.50
2023-10-01T00:13:13.589Z,17.20
2023-10-01T00:15:41.573Z,17.70
2023-10-01T00:18:09.228Z,15.40
2023-10-01T00:20:36.810Z,17.80
2023-10-01T00:23:05.264Z,16.30
2023-10-01T00:25:34.400Z,16.30
2023-10-01T00:28:02.973Z,16.60
2023-10-01T00:30:34.695Z,16.60
2023-10-01T00:33:07.040Z,17.10
2023-10-01T00:35:35.114Z,17.00
2023-10-01T00:38:02.617Z,16.20
2023-10-01T00:40:30.493Z,16.40
2023-10-01T00:42:59.736Z,17.20
2023-10-01T00:45:27.308Z,17.80
2023-10-01T00:47:54.946Z,17.30
2023-10-01T00:50:25.906Z,16.00
2023-10-01T00:52:54.466Z,16.20
2023-10-01T00:55:22.888Z,16.30
2023-10-01T00:57:51.150Z,16.70
2023-10-01T01:00:21.248Z,16.10
2023-10-01T01:02:59.970Z,16.30
2023-10-01T01:05:39.751Z,16.20
2023-10-01T01:08:23.684Z,16.70
2023-10-01T01:10:52.945Z,15.70
2023-10-01T01:13:25.528Z,15.60
2023-10-01T01:15:54.475Z,16.20
2023-10-01T01:18:23.855Z,16.80
2023-10-01T01:21:00.179Z,15.70
2023-10-01T01:23:31.442Z,15.70
2023-10-01T01:25:59.286Z,16.00
2023-10-01T01:28:32.729Z,15.90
2023-10-01T01:31:01.959Z,15.30
2023-10-01T01:33:41.912Z,16.60
2023-10-01T01:36:13.973Z,16.30
2023-10-01T01:41:49.465Z,15.10
2023-10-01T01:44:18.079Z,15.30
2023-10-01T01:47:01.175Z,15.60
2023-10-01T01:49:29.384Z,15.60
2023-10-01T01:52:01.702Z,14.00
2023-10-01T01:54:36.069Z,16.20
2023-10-01T01:57:04.360Z,15.40
2023-10-01T01:59:33.096Z,16.10
2023-10-01T02:02:00.938Z,16.50
2023-10-01T02:04:28.695Z,15.30
2023-10-01T02:06:57.499Z,16.00
2023-10-01T02:09:26.693Z,15.50
2023-10-01T02:11:55.274Z,17.20
2023-10-01T02:14:31.515Z,16.20
2023-10-01T02:17:16.821Z,16.80
2023-10-01T02:19:51.070Z,15.70
2023-10-01T02:22:19.028Z,17.00
2023-10-01T02:24:56.031Z,17.10
2023-10-01T02:27:28.230Z,16.00
2023-10-01T02:30:14.941Z,16.40
2023-10-01T02:33:11.542Z,16.40
2023-10-01T02:35:42.377Z,17.60
2023-10-01T02:38:31.602Z,16.20
2023-10-01T02:40:59.768Z,16.80
2023-10-01T02:43:27.653Z,16.60
2023-10-01T02:45:55.297Z,16.90
2023-10-01T02:48:24.043Z,16.50
2023-10-01T02:50:53.795Z,16.80
2023-10-01T02:53:24.797Z,18.60
2023-10-01T02:56:03.700Z,17.70
2023-10-01T02:58:33.754Z,18.20
2023-10-01T03:01:05.778Z,17.80
2023-10-01T03:03:34.316Z,17.40
2023-10-01T03:06:10.498Z,18.00
2023-10-01T03:08:42.688Z,18.30
2023-10-01T03:11:13.012Z,16.60
2023-10-01T03:13:40.807Z,19.40
2023-10-01T03:16:26.938Z,18.20
2023-10-01T03:18:56.391Z,18.10
2023-10-01T03:22:02.498Z,19.40
2023-10-01T03:24:30.938Z,18.40
2023-10-01T03:27:00.918Z,17.80
2023-10-01T03:29:38.293Z,17.40
2023-10-01T03:32:25.721Z,18.40
2023-10-01T03:34:54.325Z,18.20
2023-10-01T03:37:29.208Z,18.00
2023-10-01T03:40:07.373Z,18.80
2023-10-01T03:42:38.242Z,18.40
2023-10-01T03:45:12.952Z,19.10
2023-10-01T03:47:42.935Z,18.40
2023-10-01T03:50:11.237Z,18.20
2023-10-01T03:52:42.452Z,18.80
2023-10-01T03:55:29.270Z,21.10
2023-10-01T03:58:05.749Z,19.00
2023-10-01T04:00:42.672Z,18.30
2023-10-01T04:03:15.669Z,19.60
2023-10-01T04:05:47.611Z,20.10
2023-10-01T04:10:52.416Z,20.50
2023-10-01T04:13:25.225Z,20.30
2023-10-01T04:16:07.040Z,20.70
2023-10-01T04:21:02.940Z,19.60
2023-10-01T04:23:34.710Z,20.70
2023-10-01T04:26:07.920Z,20.20
2023-10-01T04:28:37.399Z,21.60
2023-10-01T04:31:11.048Z,20.20
2023-10-01T04:33:43.880Z,20.10
2023-10-01T04:36:12.625Z,20.10
2023-10-01T04:38:43.215Z,21.50
2023-10-01T04:41:15.020Z,20.40
2023-10-01T04:46:22.079Z,18.90
2023-10-01T04:48:49.813Z,20.30
2023-10-01T04:51:18.813Z,19.20
2023-10-01T04:53:47.987Z,19.60
2023-10-01T04:56:27.045Z,19.90
2023-10-01T04:58:56.366Z,20.50
2023-10-01T05:01:25.904Z,20.20
2023-10-01T05:03:54.173Z,19.30
2023-10-01T05:06:22.040Z,18.40
2023-10-01T05:09:00.003Z,19.10
2023-10-01T05:11:34.457Z,19.10
2023-10-01T05:14:06.020Z,20.40
2023-10-01T05:19:16.677Z,17.80
2023-10-01T05:28:00.486Z,18.80
2023-10-01T05:30:36.307Z,19.10
2023-10-01T05:33:07.562Z,19.00
2023-10-01T05:35:46.181Z,18.30
2023-10-01T05:38:16.327Z,19.60
2023-10-01T05:40:46.331Z,19.30
2023-10-01T05:43:17.516Z,18.00
2023-10-01T05:45:55.860Z,18.60
2023-10-01T05:48:26.979Z,19.50
2023-10-01T05:50:58.240Z,18.90
2023-10-01T05:53:26.307Z,18.10
2023-10-01T05:55:54.013Z,18.40
2023-10-01T05:58:22.694Z,17.00
2023-10-01T06:00:59.848Z,16.80
2023-10-01T06:03:27.816Z,18.60
2023-10-01T06:06:09.661Z,16.30
